Time;durP1;ratioP1;P1;durP2;ratioP2;P2;SDS_P1;SDS_P2;PMS_P1;PMS_P2;Temp;Humidity;BMP_temperature;BMP_pressure;BME280_temperature;BME280_humidity;BME280_pressure;Samples;Min_cycle;Max_cycle;Signal;HPM_P1;HPM_P2
2023/03/14 00:00:15;;;;;;;22.27;5.25;;;9.60;99.90;;;;;;5065337;28;20044;-70
2023/03/14 00:02:41;;;;;;;25.20;6.38;;;9.60;99.90;;;;;;5088901;28;20044;-71
2023/03/14 00:05:08;;;;;;;27.40;5.13;;;9.60;99.90;;;;;;5085621;28;20047;-71
2023/03/14 00:07:38;;;;;;;31.08;5.70;;;9.60;99.90;;;;;;5084953;28;20081;-71
2023/03/14 00:10:06;;;;;;;24.52;4.68;;;9.70;99.90;;;;;;5062053;28;20036;-70
2023/03/14 00:12:32;;;;;;;21.15;5.90;;;9.80;99.90;;;;;;5086676;28;20400;-71
2023/03/14 00:14:59;;;;;;;24.05;5.35;;;9.80;99.90;;;;;;5082270;28;20075;-71
2023/03/14 00:17:24;;;;;;;22.42;5.00;;;9.90;99.90;;;;;;5064887;28;20451;-70
2023/03/14 00:19:52;;;;;;;21.38;4.32;;;9.90;99.90;;;;;;5078930;28;20040;-70
2023/03/14 00:22:18;;;;;;;20.55;4.70;;;10.00;99.90;;;;;;5069729;28;20048;-70
2023/03/14 00:24:43;;;;;;;23.25;5.85;;;9.90;99.90;;;;;;5081132;28;20051;-70
2023/03/14 00:27:09;;;;;;;19.75;4.65;;;9.90;99.90;;;;;;5081459;28;20036;-70
2023/03/14 00:29:34;;;;;;;18.05;5.43;;;9.80;99.90;;;;;;5088264;28;20043;-70
2023/03/14 00:32:00;;;;;;;22.65;4.97;;;9.80;99.90;;;;;;5085334;28;20476;-70
2023/03/14 00:34:30;;;;;;;20.77;4.70;;;9.80;99.90;;;;;;5046457;28;20503;-71
2023/03/14 00:36:56;;;;;;;19.33;4.57;;;9.80;99.90;;;;;;5065232;28;20387;-70
2023/03/14 00:39:22;;;;;;;17.20;4.50;;;9.80;99.90;;;;;;5082263;28;20036;-70
2023/03/14 00:41:47;;;;;;;23.00;5.03;;;9.80;99.90;;;;;;5053278;28;20079;-71
2023/03/14 00:44:13;;;;;;;22.13;4.70;;;9.80;99.90;;;;;;5084078;28;22249;-70
2023/03/14 00:46:39;;;;;;;22.38;5.07;;;9.80;99.90;;;;;;5081200;28;20036;-70
2023/03/14 00:49:04;;;;;;;19.33;4.65;;;9.80;99.90;;;;;;5086691;28;20507;-70
2023/03/14 00:51:30;;;;;;;23.25;4.50;;;9.80;99.90;;;;;;5070770;28;20028;-70
2023/03/14 00:53:55;;;;;;;19.75;4.63;;;9.80;99.90;;;;;;5043631;28;20032;-70
2023/03/14 00:56:21;;;;;;;22.17;4.95;;;9.90;99.90;;;;;;5083493;28;20503;-70
2023/03/14 00:58:47;;;;;;;16.65;4.50;;;9.80;99.90;;;;;;5084340;28;20035;-71
2023/03/14 01:01:15;;;;;;;19.30;4.43;;;9.80;99.90;;;;;;5084841;28;20086;-71
2023/03/14 01:03:41;;;;;;;20.50;5.35;;;9.80;99.90;;;;;;5066576;28;20421;-70
2023/03/14 01:06:18;;;;;;;18.60;4.40;;;9.90;99.90;;;;;;5059845;28;20040;-70
2023/03/14 01:08:44;;;;;;;18.38;5.15;;;9.90;99.90;;;;;;5075266;28;20043;-70
2023/03/14 01:11:15;;;;;;;18.73;4.63;;;9.90;99.90;;;;;;5085950;28;20063;-70
2023/03/14 01:13:40;;;;;;;23.35;4.70;;;10.00;99.90;;;;;;5085460;28;20031;-71
2023/03/14 01:16:08;;;;;;;21.83;4.53;;;10.00;99.90;;;;;;5086203;28;20043;-70
2023/03/14 01:18:37;;;;;;;19.00;3.92;;;10.10;99.90;;;;;;5081348;28;20036;-70
2023/03/14 01:21:09;;;;;;;21.17;5.20;;;10.10;99.90;;;;;;5068223;28;20090;-71
2023/03/14 01:23:34;;;;;;;19.30;4.97;;;10.20;99.90;;;;;;5047573;28;20101;-70
2023/03/14 01:26:00;;;;;;;14.55;3.65;;;10.40;99.90;;;;;;5050764;28;20069;-70
2023/03/14 01:28:25;;;;;;;19.00;4.45;;;10.40;99.90;;;;;;5081102;28;20430;-71
2023/03/14 01:30:51;;;;;;;16.05;4.15;;;10.40;99.90;;;;;;5047830;28;20060;-71
2023/03/14 01:33:17;;;;;;;15.63;3.80;;;10.40;99.90;;;;;;5064022;28;20553;-70
2023/03/14 01:35:42;;;;;;;17.98;3.95;;;10.50;99.90;;;;;;5081579;28;20044;-70
2023/03/14 01:38:08;;;;;;;16.52;3.72;;;10.50;99.90;;;;;;5079297;28;20066;-71
2023/03/14 01:40:33;;;;;;;18.88;4.68;;;10.60;99.90;;;;;;5066142;28;20083;-70
2023/03/14 01:43:12;;;;;;;14.13;3.45;;;10.60;99.90;;;;;;5080672;28;20124;-71
2023/03/14 01:46:06;;;;;;;14.55;4.05;;;10.70;99.90;;;;;;5064884;28;20138;-70
2023/03/14 01:48:35;;;;;;;17.02;3.60;;;10.60;99.90;;;;;;5064489;28;20513;-71
2023/03/14 01:51:02;;;;;;;18.33;3.55;;;10.60;99.90;;;;;;5065302;28;20089;-71
2023/03/14 01:53:28;;;;;;;13.55;3.20;;;10.60;99.90;;;;;;5084177;28;20046;-71
2023/03/14 01:55:58;;;;;;;10.88;3.00;;;10.60;99.90;;;;;;5061933;28;20044;-71
2023/03/14 01:58:27;;;;;;;15.65;3.00;;;10.60;99.90;;;;;;5050038;28;20052;-71
2023/03/14 02:00:57;;;;;;;15.13;3.47;;;10.50;99.90;;;;;;5065204;28;20495;-71
2023/03/14 02:03:24;;;;;;;13.90;3.50;;;10.50;99.90;;;;;;5084542;28;20040;-71
2023/03/14 02:05:53;;;;;;;11.07;2.90;;;10.40;99.90;;;;;;5084426;28;20036;-71
2023/03/14 02:08:21;;;;;;;17.20;3.67;;;10.40;99.90;;;;;;5058841;28;20072;-71
2023/03/14 02:10:50;;;;;;;15.63;3.13;;;10.30;99.90;;;;;;5083886;28;20394;-71
2023/03/14 02:13:18;;;;;;;19.25;3.55;;;10.30;99.90;;;;;;5084112;28;20696;-72
2023/03/14 02:15:43;;;;;;;15.10;3.88;;;10.30;99.90;;;;;;5081649;28;20471;-71
2023/03/14 02:18:10;;;;;;;15.77;3.28;;;10.20;99.90;;;;;;5082726;28;20072;-71
2023/03/14 02:20:50;;;;;;;15.80;3.13;;;10.20;99.90;;;;;;5079893;28;20039;-71
2023/03/14 02:23:39;;;;;;;12.43;2.88;;;10.10;99.90;;;;;;5060890;28;20051;-70
2023/03/14 02:26:31;;;;;;;12.50;3.05;;;10.10;99.90;;;;;;5064755;28;20052;-70
2023/03/14 02:28:57;;;;;;;12.35;2.90;;;10.10;99.90;;;;;;5078740;28;20036;-71
2023/03/14 02:31:23;;;;;;;16.00;3.20;;;10.10;99.90;;;;;;5082126;28;20093;-71
2023/03/14 02:33:50;;;;;;;17.05;3.45;;;10.10;99.90;;;;;;5078547;28;20064;-71
2023/03/14 02:36:18;;;;;;;13.93;3.45;;;10.10;99.90;;;;;;5084075;28;20567;-71
2023/03/14 02:38:50;;;;;;;8.23;2.58;;;10.10;99.90;;;;;;5083175;28;20503;-71
2023/03/14 02:41:16;;;;;;;14.35;3.25;;;10.10;99.90;;;;;;5066558;28;20112;-71
2023/03/14 02:43:42;;;;;;;14.13;3.40;;;10.20;99.90;;;;;;5083622;28;20514;-71
2023/03/14 02:46:13;;;;;;;12.00;3.03;;;10.20;99.90;;;;;;5081809;28;20055;-71
2023/03/14 02:48:50;;;;;;;13.27;3.28;;;10.00;99.90;;;;;;5078119;28;20569;-71
2023/03/14 02:51:16;;;;;;;18.92;3.60;;;9.90;99.90;;;;;;5064734;28;20040;-71
2023/03/14 02:53:42;;;;;;;10.55;3.40;;;9.90;99.90;;;;;;5066963;28;20041;-71
2023/03/14 02:56:09;;;;;;;12.90;3.60;;;9.80;99.90;;;;;;5085016;28;20284;-71
2023/03/14 02:58:36;;;;;;;12.77;3.40;;;9.80;99.90;;;;;;5066883;28;20046;-70
2023/03/14 03:01:02;;;;;;;14.95;3.80;;;9.70;99.90;;;;;;5061520;28;20086;-70
2023/03/14 03:03:27;;;;;;;15.57;4.30;;;9.60;99.90;;;;;;5064507;28;20039;-70
2023/03/14 03:05:55;;;;;;;14.18;4.20;;;9.60;99.90;;;;;;5080209;28;20040;-70
2023/03/14 03:08:22;;;;;;;16.15;4.57;;;9.50;99.90;;;;;;5079283;28;20036;-70
2023/03/14 03:10:48;;;;;;;14.23;4.40;;;9.50;99.90;;;;;;5080999;28;20517;-71
2023/03/14 03:13:15;;;;;;;18.65;5.07;;;9.40;99.90;;;;;;5059653;28;20043;-70
2023/03/14 03:15:41;;;;;;;12.85;4.03;;;9.30;99.90;;;;;;5064719;28;20563;-70
2023/03/14 03:18:07;;;;;;;18.98;5.20;;;9.30;99.90;;;;;;5069557;28;20058;-70
2023/03/14 03:20:32;;;;;;;12.98;4.53;;;9.20;99.90;;;;;;5078327;28;20117;-71
2023/03/14 03:22:59;;;;;;;18.08;4.97;;;9.20;99.90;;;;;;5049033;28;20080;-69
2023/03/14 03:25:25;;;;;;;12.75;4.10;;;9.20;99.90;;;;;;5088423;28;20048;-71
2023/03/14 03:27:51;;;;;;;14.95;4.30;;;9.20;99.90;;;;;;5087793;28;20059;-70
2023/03/14 03:30:17;;;;;;;16.40;3.97;;;9.20;99.90;;;;;;5047679;28;20122;-71
2023/03/14 03:32:43;;;;;;;20.75;4.70;;;9.20;99.90;;;;;;5085992;28;20040;-70
2023/03/14 03:35:09;;;;;;;17.25;4.90;;;9.20;99.90;;;;;;5067906;28;20051;-70
2023/03/14 03:37:35;;;;;;;15.80;4.95;;;9.20;99.90;;;;;;5068650;28;20052;-70
2023/03/14 03:40:04;;;;;;;18.05;5.22;;;9.10;99.90;;;;;;5086001;28;20031;-71
2023/03/14 03:42:29;;;;;;;19.40;4.80;;;9.20;99.90;;;;;;5077549;28;20036;-70
2023/03/14 03:44:55;;;;;;;19.90;5.05;;;9.20;99.90;;;;;;5088663;28;20047;-70
2023/03/14 03:47:21;;;;;;;15.40;4.50;;;9.20;99.90;;;;;;5069685;28;20055;-70
2023/03/14 03:49:46;;;;;;;16.30;5.20;;;9.20;99.90;;;;;;5088192;28;20506;-71
2023/03/14 03:52:12;;;;;;;15.85;5.05;;;9.20;99.90;;;;;;5087825;28;20052;-70
2023/03/14 03:54:38;;;;;;;20.80;5.80;;;9.20;99.90;;;;;;5049838;28;20048;-71
2023/03/14 03:57:03;;;;;;;19.95;5.03;;;9.20;99.90;;;;;;5080335;28;20452;-71
2023/03/14 03:59:29;;;;;;;21.15;5.03;;;9.20;99.90;;;;;;5062866;28;20047;-71
2023/03/14 04:01:54;;;;;;;21.08;6.10;;;9.20;99.90;;;;;;5081248;28;20063;-71
2023/03/14 04:04:20;;;;;;;16.88;4.60;;;9.20;99.90;;;;;;5084387;28;20040;-71
2023/03/14 04:06:46;;;;;;;16.65;5.07;;;9.20;99.90;;;;;;5087796;28;20043;-71
2023/03/14 04:09:12;;;;;;;23.88;5.53;;;9.20;99.90;;;;;;5066800;28;20468;-70
2023/03/14 04:11:37;;;;;;;19.50;5.30;;;9.20;99.90;;;;;;5070373;28;20043;-70
2023/03/14 04:14:04;;;;;;;17.67;4.70;;;9.20;99.90;;;;;;5067590;28;20439;-71
2023/03/14 04:16:31;;;;;;;17.67;5.30;;;9.20;99.90;;;;;;5067411;28;20036;-70
2023/03/14 04:18:57;;;;;;;24.95;5.07;;;9.20;99.90;;;;;;5084644;28;20040;-70
2023/03/14 04:21:23;;;;;;;21.85;5.70;;;9.20;99.90;;;;;;5051864;28;20048;-70
2023/03/14 04:23:49;;;;;;;23.92;5.80;;;9.20;99.90;;;;;;5086885;28;20526;-70
2023/03/14 04:26:14;;;;;;;23.83;5.68;;;9.20;99.90;;;;;;5087246;28;20539;-70
2023/03/14 04:28:40;;;;;;;23.40;6.47;;;9.20;99.90;;;;;;5052994;28;20165;-70
2023/03/14 04:31:16;;;;;;;23.05;7.22;;;9.10;99.90;;;;;;5086145;28;20439;-71
2023/03/14 04:33:42;;;;;;;19.75;5.65;;;9.10;99.90;;;;;;5066388;28;20342;-71
2023/03/14 04:36:08;;;;;;;19.23;7.13;;;9.10;99.90;;;;;;5079588;28;20082;-70
2023/03/14 04:38:34;;;;;;;22.38;8.00;;;9.10;99.90;;;;;;5075479;28;20460;-71
2023/03/14 04:41:00;;;;;;;21.70;7.85;;;9.10;99.90;;;;;;5048496;28;20044;-71
2023/03/14 04:43:26;;;;;;;19.80;7.43;;;9.00;99.90;;;;;;5055038;28;20514;-72
2023/03/14 04:45:54;;;;;;;21.17;7.10;;;9.00;99.90;;;;;;5081574;28;20040;-71
2023/03/14 04:48:20;;;;;;;24.50;8.63;;;9.00;99.90;;;;;;5066776;28;20096;-71
2023/03/14 04:50:49;;;;;;;25.73;9.60;;;9.00;99.90;;;;;;5068551;28;20040;-70
2023/03/14 04:53:16;;;;;;;23.30;8.77;;;9.00;99.90;;;;;;5065552;28;20090;-71
2023/03/14 04:55:41;;;;;;;24.80;9.57;;;9.00;99.90;;;;;;5082138;28;20164;-70
2023/03/14 04:58:07;;;;;;;18.45;8.15;;;9.00;99.90;;;;;;5086454;28;20983;-70
2023/03/14 05:00:33;;;;;;;22.25;9.25;;;9.00;99.90;;;;;;5067575;28;20123;-70
2023/03/14 05:02:58;;;;;;;20.33;7.88;;;9.00;99.90;;;;;;5065349;28;20083;-70
2023/03/14 05:05:24;;;;;;;20.08;7.30;;;8.90;99.90;;;;;;5050875;28;20056;-71
2023/03/14 05:07:50;;;;;;;25.23;9.45;;;8.90;99.90;;;;;;5077952;28;20119;-71
2023/03/14 05:10:16;;;;;;;23.40;8.48;;;8.90;99.90;;;;;;5087783;28;20491;-70
2023/03/14 05:12:41;;;;;;;19.88;8.38;;;8.90;99.90;;;;;;5067447;28;20040;-70
2023/03/14 05:15:08;;;;;;;27.05;9.25;;;8.90;99.90;;;;;;5060604;28;20485;-71
2023/03/14 05:17:34;;;;;;;22.65;7.88;;;8.90;99.90;;;;;;5066700;28;20048;-71
2023/03/14 05:20:00;;;;;;;20.20;8.23;;;8.80;99.90;;;;;;5067303;28;20044;-71
2023/03/14 05:22:25;;;;;;;24.65;8.38;;;8.90;99.90;;;;;;5065959;28;20534;-72
2023/03/14 05:24:51;;;;;;;20.40;7.57;;;8.90;99.90;;;;;;5084702;28;20063;-72
2023/03/14 05:27:17;;;;;;;19.98;6.63;;;8.90;99.90;;;;;;5085530;28;20122;-71
2023/03/14 05:29:42;;;;;;;14.88;6.32;;;8.90;99.90;;;;;;5065960;28;20032;-72
2023/03/14 05:32:08;;;;;;;13.05;5.93;;;8.80;99.90;;;;;;5049362;28;20089;-73
2023/03/14 05:34:34;;;;;;;12.43;5.03;;;8.80;99.90;;;;;;5025153;28;20047;-71
2023/03/14 05:36:59;;;;;;;15.27;6.22;;;8.80;99.90;;;;;;5065407;28;20123;-73
2023/03/14 05:39:25;;;;;;;14.07;6.07;;;8.80;99.90;;;;;;5080768;28;20036;-71
2023/03/14 05:41:50;;;;;;;16.05;6.30;;;8.80;99.90;;;;;;5065368;28;20392;-72
2023/03/14 05:44:17;;;;;;;16.48;6.40;;;8.80;99.90;;;;;;5067283;28;20039;-72
2023/03/14 05:46:42;;;;;;;17.98;6.47;;;8.80;99.90;;;;;;5062844;28;20167;-72
2023/03/14 05:49:08;;;;;;;17.02;6.50;;;8.80;99.90;;;;;;5042113;28;20123;-72
2023/03/14 05:51:33;;;;;;;15.95;5.20;;;8.80;99.90;;;;;;5066397;28;20567;-72
2023/03/14 05:53:59;;;;;;;14.82;6.00;;;8.80;99.90;;;;;;5064760;28;20032;-71
2023/03/14 05:56:25;;;;;;;10.95;5.10;;;8.80;99.90;;;;;;5067638;28;20507;-71
2023/03/14 05:58:50;;;;;;;11.65;4.88;;;8.90;99.90;;;;;;5063081;28;20040;-72
2023/03/14 06:01:16;;;;;;;13.27;5.50;;;8.90;99.90;;;;;;5065009;28;20044;-72
2023/03/14 06:03:41;;;;;;;14.48;5.53;;;8.80;99.90;;;;;;5062902;28;20445;-71
2023/03/14 06:06:07;;;;;;;14.15;5.93;;;8.80;99.90;;;;;;5066510;28;20055;-71
2023/03/14 06:08:34;;;;;;;10.80;5.82;;;8.80;99.90;;;;;;5064662;28;20028;-71
2023/03/14 06:11:02;;;;;;;13.60;6.00;;;8.80;99.90;;;;;;5067110;28;20082;-71
2023/03/14 06:13:27;;;;;;;12.88;5.60;;;8.80;99.90;;;;;;5048271;28;20465;-71
2023/03/14 06:15:53;;;;;;;15.90;6.35;;;8.80;99.90;;;;;;5065063;28;20135;-71
2023/03/14 06:18:19;;;;;;;17.48;6.90;;;8.90;99.90;;;;;;5083270;28;20067;-71
2023/03/14 06:20:44;;;;;;;15.32;5.68;;;8.90;99.90;;;;;;5041451;28;20039;-72
2023/03/14 06:23:10;;;;;;;13.90;6.38;;;8.90;99.90;;;;;;5081394;28;20144;-70
2023/03/14 06:25:36;;;;;;;13.02;6.32;;;8.90;99.90;;;;;;5083206;28;20240;-71
2023/03/14 06:28:02;;;;;;;11.68;4.43;;;8.90;99.90;;;;;;5067137;28;20435;-71
2023/03/14 06:30:27;;;;;;;3.25;1.60;;;8.90;99.90;;;;;;5063733;28;20086;-71
2023/03/14 06:32:55;;;;;;;5.57;1.83;;;8.70;99.90;;;;;;5068312;28;20063;-71
2023/03/14 06:35:21;;;;;;;12.05;1.92;;;8.10;99.90;;;;;;5061393;28;20121;-71
2023/03/14 06:37:47;;;;;;;15.68;2.50;;;7.60;99.90;;;;;;5066968;28;20491;-71
2023/03/14 06:40:16;;;;;;;17.50;2.13;;;7.40;99.90;;;;;;5084203;28;20404;-71
2023/03/14 06:42:43;;;;;;;14.13;2.42;;;7.10;99.90;;;;;;5050188;28;20039;-70
2023/03/14 06:45:09;;;;;;;9.00;2.40;;;7.00;99.90;;;;;;5067029;28;20044;-71
2023/03/14 06:47:35;;;;;;;15.95;2.95;;;6.90;99.90;;;;;;5045801;28;20109;-71
2023/03/14 06:50:01;;;;;;;12.80;2.40;;;6.70;99.90;;;;;;5057683;28;20458;-71
2023/03/14 06:52:27;;;;;;;10.82;2.28;;;6.60;99.90;;;;;;5070087;28;20067;-71
2023/03/14 06:54:52;;;;;;;9.55;2.33;;;6.40;99.90;;;;;;5082186;28;20043;-71
2023/03/14 06:57:18;;;;;;;7.70;2.10;;;6.30;99.90;;;;;;5067123;28;20058;-71
2023/03/14 06:59:43;;;;;;;11.65;2.13;;;6.20;99.90;;;;;;5056382;28;20063;-71
2023/03/14 07:02:13;;;;;;;13.20;2.10;;;6.00;99.90;;;;;;5070225;28;20043;-71
2023/03/14 07:04:38;;;;;;;15.57;2.20;;;5.80;99.90;;;;;;5091305;28;20051;-71
2023/03/14 07:07:05;;;;;;;10.48;1.92;;;5.60;99.90;;;;;;5074183;28;20040;-71
2023/03/14 07:09:31;;;;;;;9.38;2.13;;;5.50;99.90;;;;;;5090094;28;20132;-72
2023/03/14 07:11:56;;;;;;;10.45;1.83;;;5.30;99.90;;;;;;5073648;28;20134;-71
2023/03/14 07:14:22;;;;;;;9.50;1.98;;;5.20;99.90;;;;;;5052446;28;20647;-71
2023/03/14 07:16:47;;;;;;;3.97;1.67;;;5.10;99.90;;;;;;5089734;28;20040;-72
2023/03/14 07:19:13;;;;;;;8.20;1.70;;;5.00;99.90;;;;;;5066462;28;20734;-70
2023/03/14 07:21:39;;;;;;;11.18;1.73;;;4.90;99.90;;;;;;5066947;28;20092;-71
2023/03/14 07:24:05;;;;;;;5.43;1.63;;;4.80;99.90;;;;;;5072393;28;20036;-70
2023/03/14 07:26:30;;;;;;;7.90;1.67;;;4.80;99.90;;;;;;5068932;28;20057;-71
2023/03/14 07:28:56;;;;;;;6.20;1.67;;;4.80;99.90;;;;;;5067552;28;20090;-71
2023/03/14 07:31:21;;;;;;;4.53;1.40;;;4.70;99.90;;;;;;5066414;28;20043;-70
2023/03/14 07:33:47;;;;;;;4.60;1.30;;;4.70;99.90;;;;;;5087748;28;20498;-71
2023/03/14 07:36:13;;;;;;;4.97;1.42;;;4.70;99.90;;;;;;5088322;28;20051;-70
2023/03/14 07:38:38;;;;;;;5.45;1.77;;;4.70;99.90;;;;;;5052077;28;20042;-70
2023/03/14 07:41:06;;;;;;;4.57;1.50;;;4.70;99.90;;;;;;5087898;28;20047;-70
2023/03/14 07:43:32;;;;;;;4.03;1.60;;;4.60;99.90;;;;;;5068319;28;20456;-71
2023/03/14 07:45:57;;;;;;;4.72;1.52;;;4.70;99.90;;;;;;5054686;28;20048;-71
2023/03/14 07:48:24;;;;;;;4.13;1.60;;;4.60;99.90;;;;;;5072915;28;20059;-71
2023/03/14 07:50:51;;;;;;;5.03;1.60;;;4.60;99.90;;;;;;5070603;28;20115;-71
2023/03/14 07:53:18;;;;;;;5.38;1.95;;;4.60;99.90;;;;;;5053765;28;20068;-71
2023/03/14 07:55:43;;;;;;;10.23;2.00;;;4.70;99.90;;;;;;5070077;28;20098;-71
2023/03/14 07:58:09;;;;;;;6.25;1.88;;;4.70;99.90;;;;;;5090196;28;20064;-71
2023/03/14 08:00:35;;;;;;;7.50;2.00;;;4.70;99.90;;;;;;5055528;28;20098;-71
2023/03/14 08:03:00;;;;;;;7.82;2.13;;;4.80;99.90;;;;;;5078860;28;20060;-71
2023/03/14 08:05:27;;;;;;;11.05;2.35;;;4.90;99.90;;;;;;5088191;28;20040;-71
2023/03/14 08:07:52;;;;;;;9.30;2.20;;;4.90;99.90;;;;;;5085903;28;20036;-71
2023/03/14 08:10:24;;;;;;;7.22;1.92;;;4.90;99.90;;;;;;5084194;28;20038;-71
2023/03/14 08:12:54;;;;;;;6.97;1.88;;;5.00;99.90;;;;;;5050861;28;20039;-71
2023/03/14 08:15:20;;;;;;;8.95;1.80;;;5.10;99.90;;;;;;5083024;28;20470;-71
2023/03/14 08:17:50;;;;;;;9.35;2.00;;;5.20;99.90;;;;;;5063446;28;20035;-71
2023/03/14 08:20:25;;;;;;;7.82;2.50;;;5.30;99.90;;;;;;5067331;28;20043;-71
2023/03/14 08:22:51;;;;;;;8.50;1.55;;;5.30;99.90;;;;;;5065218;28;20051;-71
2023/03/14 08:25:17;;;;;;;8.20;2.00;;;5.40;99.90;;;;;;5068130;28;20056;-71
2023/03/14 08:27:43;;;;;;;12.15;2.38;;;5.50;99.90;;;;;;5070118;28;20051;-71
2023/03/14 08:30:15;;;;;;;9.73;1.90;;;5.50;99.90;;;;;;5069117;28;20051;-71
2023/03/14 08:32:40;;;;;;;9.63;1.85;;;5.60;99.90;;;;;;5044789;28;20043;-71
2023/03/14 08:35:07;;;;;;;9.30;2.00;;;5.70;99.90;;;;;;5069628;28;20036;-71
2023/03/14 08:37:33;;;;;;;10.95;2.15;;;5.80;99.90;;;;;;5049388;28;20075;-71
2023/03/14 08:39:59;;;;;;;7.85;1.70;;;5.90;99.90;;;;;;5064605;28;20068;-71
2023/03/14 08:42:25;;;;;;;9.80;1.92;;;6.10;99.90;;;;;;5068886;28;20136;-71
2023/03/14 08:44:54;;;;;;;11.63;2.13;;;6.30;99.90;;;;;;5067123;28;20040;-71
2023/03/14 08:47:19;;;;;;;6.82;2.15;;;6.40;99.90;;;;;;5064101;28;20028;-71
2023/03/14 08:49:45;;;;;;;5.22;1.58;;;6.50;99.90;;;;;;5060445;28;20100;-71
2023/03/14 08:52:11;;;;;;;14.32;2.33;;;6.60;99.90;;;;;;5066771;28;20031;-72
2023/03/14 08:54:37;;;;;;;9.27;2.40;;;6.60;99.90;;;;;;5068245;28;20404;-71
2023/03/14 08:57:02;;;;;;;10.70;2.40;;;6.60;99.90;;;;;;5069538;28;20039;-71
2023/03/14 08:59:28;;;;;;;13.02;2.72;;;6.60;99.90;;;;;;5066662;28;20076;-71
2023/03/14 09:01:54;;;;;;;12.10;3.40;;;6.60;99.90;;;;;;5066052;28;20028;-72
2023/03/14 09:04:20;;;;;;;13.18;2.65;;;6.70;99.90;;;;;;5066443;28;20377;-71
2023/03/14 09:06:45;;;;;;;12.02;2.40;;;6.80;99.90;;;;;;5080320;28;20051;-71
2023/03/14 09:09:13;;;;;;;16.45;3.35;;;6.90;99.90;;;;;;5086284;28;20039;-71
2023/03/14 09:11:38;;;;;;;16.55;3.30;;;7.20;99.90;;;;;;5067656;28;20043;-71
2023/03/14 09:14:04;;;;;;;12.95;2.70;;;7.40;99.90;;;;;;5068563;28;20498;-71
2023/03/14 09:16:30;;;;;;;19.15;3.33;;;7.60;99.90;;;;;;5067237;28;20060;-71
2023/03/14 09:18:59;;;;;;;15.18;3.25;;;7.80;99.90;;;;;;5066987;28;20097;-71
2023/03/14 09:21:28;;;;;;;16.55;2.90;;;7.90;99.90;;;;;;5086521;28;20047;-71
2023/03/14 09:23:53;;;;;;;17.58;3.38;;;8.00;99.90;;;;;;5061021;28;20057;-71
2023/03/14 09:26:19;;;;;;;17.30;3.72;;;7.90;99.90;;;;;;5067732;28;20095;-71
2023/03/14 09:28:45;;;;;;;14.30;3.30;;;7.50;99.90;;;;;;5067053;28;20112;-71
2023/03/14 09:31:12;;;;;;;17.75;3.00;;;7.20;99.90;;;;;;5068651;28;20036;-71
2023/03/14 09:33:38;;;;;;;15.73;3.78;;;7.00;99.90;;;;;;5085092;28;20510;-71
2023/03/14 09:36:04;;;;;;;19.33;3.50;;;6.90;99.90;;;;;;5052477;28;20407;-71
2023/03/14 09:38:30;;;;;;;14.02;3.15;;;6.80;99.90;;;;;;5067900;28;20073;-71
2023/03/14 09:40:58;;;;;;;14.30;3.20;;;6.70;99.90;;;;;;5087287;28;20419;-71
2023/03/14 09:43:25;;;;;;;20.02;3.38;;;6.60;99.90;;;;;;5068304;28;20445;-71
2023/03/14 09:45:52;;;;;;;16.75;4.13;;;6.60;99.90;;;;;;5036908;28;20494;-71
2023/03/14 09:48:22;;;;;;;14.55;2.72;;;6.60;99.90;;;;;;5060019;28;20044;-71
2023/03/14 09:50:59;;;;;;;13.85;2.80;;;6.70;99.90;;;;;;5067836;28;20155;-71
2023/03/14 09:53:33;;;;;;;14.63;3.53;;;6.70;99.90;;;;;;5087070;28;20043;-71
2023/03/14 09:55:59;;;;;;;15.98;3.50;;;6.70;99.90;;;;;;5065199;28;20139;-71
2023/03/14 09:58:25;;;;;;;20.70;3.72;;;6.60;99.90;;;;;;5050225;28;20697;-71
2023/03/14 10:00:55;;;;;;;21.83;3.38;;;6.60;99.90;;;;;;5085404;28;20032;-71
2023/03/14 10:03:35;;;;;;;16.80;3.47;;;6.60;99.90;;;;;;5059315;28;20032;-71
2023/03/14 10:06:01;;;;;;;19.02;3.55;;;6.60;99.90;;;;;;5067432;28;20173;-71
2023/03/14 10:08:27;;;;;;;19.13;3.45;;;6.60;99.90;;;;;;5060993;28;20032;-71
2023/03/14 10:10:54;;;;;;;20.80;3.60;;;6.60;99.90;;;;;;5049435;28;20044;-71
2023/03/14 10:13:25;;;;;;;16.27;3.92;;;6.60;99.90;;;;;;5065586;28;20039;-71
2023/03/14 10:16:02;;;;;;;20.38;3.65;;;6.70;99.90;;;;;;5059414;28;20071;-71
2023/03/14 10:18:30;;;;;;;17.10;3.47;;;6.80;99.90;;;;;;5086346;28;20470;-71
2023/03/14 10:21:04;;;;;;;11.88;2.97;;;7.00;99.90;;;;;;5056875;28;20059;-71
2023/03/14 10:23:33;;;;;;;13.05;3.13;;;7.10;99.90;;;;;;5066093;28;20039;-71
2023/03/14 10:26:28;;;;;;;16.90;3.53;;;7.20;99.90;;;;;;5085659;28;20053;-71
2023/03/14 10:29:08;;;;;;;12.07;2.85;;;7.30;99.90;;;;;;5003383;28;20053;-71
2023/03/14 10:31:51;;;;;;;12.68;2.47;;;7.30;99.90;;;;;;4996071;28;20038;-71
2023/03/14 10:34:22;;;;;;;11.38;3.35;;;7.20;99.90;;;;;;5005083;28;20054;-71
2023/03/14 10:36:56;;;;;;;12.18;3.20;;;7.20;99.90;;;;;;4997180;28;20521;-71
2023/03/14 10:39:25;;;;;;;14.52;2.88;;;7.20;99.90;;;;;;4989818;28;20050;-71
2023/03/14 10:41:54;;;;;;;9.70;2.78;;;7.10;99.90;;;;;;5020009;28;20045;-72
2023/03/14 10:44:22;;;;;;;16.23;3.38;;;7.30;99.90;;;;;;5021156;28;20045;-71
2023/03/14 10:47:01;;;;;;;14.35;3.75;;;7.60;99.90;;;;;;5015403;28;20409;-71
2023/03/14 10:49:37;;;;;;;14.07;2.63;;;7.90;99.90;;;;;;5004591;28;20038;-71
2023/03/14 10:52:13;;;;;;;14.27;2.58;;;7.90;99.90;;;;;;4989019;28;20041;-71
2023/03/14 10:54:39;;;;;;;11.93;2.22;;;7.80;99.90;;;;;;5001979;28;20650;-70
2023/03/14 10:57:08;;;;;;;14.55;2.85;;;7.60;99.90;;;;;;4983009;28;20617;-71
2023/03/14 10:59:39;;;;;;;13.07;2.33;;;7.40;99.90;;;;;;5002098;28;20428;-71
2023/03/14 11:02:19;;;;;;;6.82;1.77;;;7.30;99.90;;;;;;4996757;28;20034;-71
2023/03/14 11:04:57;;;;;;;12.25;2.47;;;7.60;99.90;;;;;;5035140;28;20048;-71
2023/03/14 11:07:52;;;;;;;10.07;2.47;;;7.90;99.90;;;;;;5064946;28;20126;-71
2023/03/14 11:10:26;;;;;;;10.18;3.13;;;7.90;99.90;;;;;;5021812;28;20457;-71
2023/03/14 11:13:25;;;;;;;7.55;2.75;;;8.00;99.90;;;;;;5011732;28;20041;-71
2023/03/14 11:16:04;;;;;;;9.05;2.55;;;8.00;99.90;;;;;;5000478;28;20045;-71
2023/03/14 11:18:53;;;;;;;10.45;2.45;;;7.70;99.90;;;;;;5004884;28;20240;-71
2023/03/14 11:21:24;;;;;;;7.15;2.20;;;7.40;99.90;;;;;;5005886;28;20053;-72
2023/03/14 11:24:17;;;;;;;9.20;2.90;;;7.30;99.90;;;;;;5020793;28;20061;-71
2023/03/14 11:27:05;;;;;;;13.05;2.55;;;7.30;99.90;;;;;;5005782;28;20148;-72
2023/03/14 11:29:40;;;;;;;9.75;2.30;;;7.20;99.90;;;;;;5012016;28;20084;-72
2023/03/14 11:32:45;;;;;;;7.75;2.20;;;7.30;99.90;;;;;;5003991;28;20525;-71
2023/03/14 11:35:21;;;;;;;6.50;1.77;;;7.70;99.90;;;;;;5015544;28;20041;-71
2023/03/14 11:38:32;;;;;;;12.02;2.25;;;8.20;99.90;;;;;;5022241;28;20049;-71
2023/03/14 11:40:59;;;;;;;8.25;2.22;;;8.30;99.90;;;;;;4997979;28;20053;-71
2023/03/14 11:43:29;;;;;;;6.60;2.22;;;8.00;99.90;;;;;;5003417;28;20053;-71
2023/03/14 11:46:27;;;;;;;10.25;2.55;;;7.80;99.90;;;;;;5023053;28;20052;-71
2023/03/14 11:48:59;;;;;;;3.13;1.50;;;7.90;99.90;;;;;;5021536;28;20464;-71
2023/03/14 11:51:34;;;;;;;7.43;2.03;;;7.90;99.90;;;;;;5081836;28;20032;-71
2023/03/14 11:54:16;;;;;;;8.35;2.40;;;7.80;99.90;;;;;;5082970;28;20103;-71
2023/03/14 11:56:50;;;;;;;5.68;1.80;;;7.80;99.90;;;;;;5065387;28;20086;-71
2023/03/14 11:59:23;;;;;;;10.57;2.10;;;7.90;99.60;;;;;;5049773;28;20052;-71
2023/03/14 12:01:59;;;;;;;7.45;2.15;;;8.10;99.90;;;;;;5067197;28;20125;-71
2023/03/14 12:04:36;;;;;;;10.30;2.10;;;8.40;99.90;;;;;;5085198;28;20044;-71
2023/03/14 12:07:33;;;;;;;9.40;2.33;;;8.40;99.90;;;;;;5084307;28;20052;-71
2023/03/14 12:09:59;;;;;;;9.15;2.38;;;8.20;99.90;;;;;;5078942;28;20055;-71
2023/03/14 12:12:27;;;;;;;9.82;2.00;;;8.00;99.90;;;;;;5066464;28;20108;-71
2023/03/14 12:14:57;;;;;;;10.25;2.55;;;7.80;99.90;;;;;;5056461;28;20074;-71
2023/03/14 12:17:33;;;;;;;6.70;1.92;;;7.70;99.90;;;;;;5081595;28;20040;-71
2023/03/14 12:20:15;;;;;;;12.30;2.47;;;7.60;99.90;;;;;;5079543;28;20044;-71
2023/03/14 12:22:44;;;;;;;15.52;3.08;;;7.90;99.90;;;;;;5063105;28;20051;-71
2023/03/14 12:25:15;;;;;;;6.97;1.98;;;8.00;99.90;;;;;;5051742;28;20098;-71
2023/03/14 12:27:56;;;;;;;8.30;2.17;;;8.10;99.90;;;;;;5059707;28;20062;-71
2023/03/14 12:30:28;;;;;;;9.43;2.17;;;8.10;98.30;;;;;;5063985;28;20048;-71
2023/03/14 12:33:09;;;;;;;9.63;2.03;;;8.20;99.90;;;;;;5087879;28;20388;-71
2023/03/14 12:35:38;;;;;;;7.75;2.33;;;8.50;99.50;;;;;;5050449;28;20035;-71
2023/03/14 12:38:09;;;;;;;9.02;2.70;;;8.60;99.90;;;;;;5069186;28;20051;-71
2023/03/14 12:40:57;;;;;;;6.97;2.03;;;8.60;98.00;;;;;;5066663;28;20032;-71
2023/03/14 12:43:28;;;;;;;10.50;2.25;;;8.40;98.20;;;;;;5066886;28;20048;-71
2023/03/14 12:46:12;;;;;;;6.25;2.10;;;8.50;98.30;;;;;;5067155;28;20043;-71
2023/03/14 12:48:39;;;;;;;9.38;2.17;;;8.50;99.40;;;;;;5063420;28;20135;-71
2023/03/14 12:51:13;;;;;;;10.13;2.20;;;8.70;99.40;;;;;;5065743;28;20419;-71
2023/03/14 12:53:57;;;;;;;;;;;8.70;97.00;;;;;;5086942;28;20068;-71
2023/03/14 12:56:35;;;;;;;15.68;3.00;;;8.60;97.90;;;;;;5064696;28;19920;-71